Latest Weather Observations for Frankston Beach

IDV60801

Issued at 3:52 am EDT Thursday 21 October 2021 (issued every 10 minutes, with the page automatically refreshed every 10 minutes)

About weather observations | Map of weather stations | Latest weather observations for VIC | Other Formats
Station Details ID: 086371 Name: FRANKSTON BEACH Lat: -38.15 Lon: 145.12 Height: 6.0 m
Data from the previous 72 hours. | See also: Recent months at Frankston Beach
Date/Time
EDT
Temp
°C
App
Temp
°C
Dew
Point
°C
Rel
Hum
%
Delta-T
°C
Wind Press
QNH
hPa
Press
MSL
hPa
Rain since
9am
mm
Dir  Spd
km/h
Gust
km/h
Spd
kts
Gust
kts
21/03:30am - - - - - E 15 24 8 13 - - -
21/03:00am - - - - - ESE 17 26 9 14 - - -
21/02:30am - - - - - E 17 30 9 16 - - -
21/02:00am - - - - - E 19 30 10 16 - - -
21/01:30am - - - - - E 19 30 10 16 - - -
21/01:00am - - - - - E 20 28 11 15 - - -
21/12:30am - - - - - E 17 33 9 18 - - -
21/12:00am - - - - - E 19 28 10 15 - - -
 
Date/Time
EDT
Temp
°C
App
Temp
°C
Dew
Point
°C
Rel
Hum
%
Delta-T
°C
Wind Press
QNH
hPa
Press
MSL
hPa
Rain since
9am
mm
Dir  Spd
km/h
Gust
km/h
Spd
kts
Gust
kts
20/11:30pm - - - - - E 20 28 11 15 - - -
20/11:00pm - - - - - E 19 35 10 19 - - -
20/10:30pm - - - - - E 19 33 10 18 - - -
20/10:00pm - - - - - E 19 33 10 18 - - -
20/09:30pm - - - - - E 19 37 10 20 - - -
20/09:00pm - - - - - E 22 37 12 20 - - -
20/08:30pm - - - - - E 20 35 11 19 - - -
20/08:00pm - - - - - E 19 39 10 21 - - -
20/07:30pm - - - - - E 17 33 9 18 - - -
20/07:00pm - - - - - E 19 35 10 19 - - -
20/06:30pm - - - - - E 22 35 12 19 - - -
20/06:00pm - - - - - E 20 35 11 19 - - -
20/05:30pm - - - - - E 15 30 8 16 - - -
20/05:00pm - - - - - E 20 30 11 16 - - -
20/04:30pm - - - - - ESE 15 26 8 14 - - -
20/04:00pm - - - - - ESE 17 28 9 15 - - -
20/03:30pm - - - - - E 17 30 9 16 - - -
20/03:00pm - - - - - ENE 15 20 8 11 - - -
20/02:30pm - - - - - ESE 15 28 8 15 - - -
20/02:00pm - - - - - E 15 24 8 13 - - -
20/01:30pm - - - - - E 15 26 8 14 - - -
20/01:00pm - - - - - E 15 26 8 14 - - -
20/12:30pm - - - - - E 17 28 9 15 - - -
20/12:00pm - - - - - E 20 32 11 17 - - -
20/11:30am - - - - - E 19 30 10 16 - - -
20/11:00am - - - - - E 19 32 10 17 - - -
20/10:30am - - - - - E 19 30 10 16 - - -
20/10:00am - - - - - E 24 39 13 21 - - -
20/09:30am - - - - - E 24 37 13 20 - - -
20/09:00am - - - - - E 20 39 11 21 - - -
20/08:30am - - - - - E 22 33 12 18 - - -
20/08:00am - - - - - E 22 39 12 21 - - -
20/07:30am - - - - - ESE 20 35 11 19 - - -
20/07:00am - - - - - E 17 30 9 16 - - -
20/06:30am - - - - - ESE 13 26 7 14 - - -
20/06:00am - - - - - E 13 24 7 13 - - -
20/05:30am - - - - - E 17 30 9 16 - - -
20/05:00am - - - - - E 13 22 7 12 - - -
20/04:30am - - - - - E 15 26 8 14 - - -
20/04:00am - - - - - E 15 28 8 15 - - -
20/03:30am - - - - - E 11 20 6 11 - - -
20/03:00am - - - - - E 13 20 7 11 - - -
20/02:30am - - - - - E 13 19 7 10 - - -
20/02:00am - - - - - ESE 17 28 9 15 - - -
20/01:30am - - - - - ESE 15 26 8 14 - - -
20/01:00am - - - - - ESE 13 22 7 12 - - -
20/12:30am - - - - - ESE 13 22 7 12 - - -
20/12:00am - - - - - ESE 9 15 5 8 - - -
 
Date/Time
EDT
Temp
°C
App
Temp
°C
Dew
Point
°C
Rel
Hum
%
Delta-T
°C
Wind Press
QNH
hPa
Press
MSL
hPa
Rain since
9am
mm
Dir  Spd
km/h
Gust
km/h
Spd
kts
Gust
kts
19/11:30pm - - - - - SE 11 17 6 9 - - -
19/11:00pm - - - - - ESE 11 19 6 10 - - -
19/10:30pm - - - - - SE 9 17 5 9 - - -
19/10:00pm - - - - - ESE 11 20 6 11 - - -
19/09:30pm - - - - - ESE 13 24 7 13 - - -
19/09:00pm - - - - - ESE 15 26 8 14 - - -
19/08:30pm - - - - - SE 13 26 7 14 - - -
19/08:00pm - - - - - SSE 13 20 7 11 - - -
19/07:30pm - - - - - SE 15 22 8 12 - - -
19/07:00pm - - - - - SE 15 30 8 16 - - -
19/06:30pm - - - - - SSE 15 26 8 14 - - -
19/06:00pm - - - - - SSE 13 28 7 15 - - -
19/05:30pm - - - - - SSE 19 28 10 15 - - -
19/05:00pm - - - - - S 17 30 9 16 - - -
19/04:30pm - - - - - S 20 33 11 18 - - -
19/04:00pm - - - - - SSE 19 30 10 16 - - -
19/03:30pm - - - - - SSE 20 33 11 18 - - -
19/03:00pm - - - - - SSE 20 35 11 19 - - -
19/02:30pm - - - - - SSE 19 33 10 18 - - -
19/02:00pm - - - - - SSE 19 32 10 17 - - -
19/01:30pm - - - - - SSE 17 30 9 16 - - -
19/01:00pm - - - - - SSE 17 33 9 18 - - -
19/12:30pm - - - - - SSE 11 20 6 11 - - -
19/12:00pm - - - - - S 15 26 8 14 - - -
19/11:30am - - - - - SE 9 15 5 8 - - -
19/11:00am - - - - - ESE 11 19 6 10 - - -
19/10:30am - - - - - SW 7 17 4 9 - - -
19/10:00am - - - - - SW 7 13 4 7 - - -
19/09:30am - - - - - SSW 13 26 7 14 - - -
19/09:00am - - - - - SW 17 22 9 12 - - -
19/08:30am - - - - - SSW 13 19 7 10 - - -
19/08:00am - - - - - SSW 9 13 5 7 - - -
19/07:30am - - - - - S 7 9 4 5 - - -
19/07:00am - - - - - SSE 9 11 5 6 - - -
19/06:30am - - - - - SSW 9 11 5 6 - - -
19/06:00am - - - - - S 7 9 4 5 - - -
19/05:30am - - - - - SE 6 7 3 4 - - -
19/05:00am - - - - - SSW 9 9 5 5 - - -
19/04:30am - - - - - S 9 9 5 5 - - -
19/04:00am - - - - - SSW 11 15 6 8 - - -
19/03:30am - - - - - SW 17 28 9 15 - - -
19/03:00am - - - - - S 11 17 6 9 - - -
19/02:30am - - - - - SSW 13 17 7 9 - - -
19/02:00am - - - - - S 11 13 6 7 - - -
19/01:30am - - - - - S 9 11 5 6 - - -
19/01:00am - - - - - S 11 13 6 7 - - -
19/12:30am - - - - - S 11 13 6 7 - - -
19/12:00am - - - - - SSE 9 11 5 6 - - -
 
Date/Time
EDT
Temp
°C
App
Temp
°C
Dew
Point
°C
Rel
Hum
%
Delta-T
°C
Wind Press
QNH
hPa
Press
MSL
hPa
Rain since
9am
mm
Dir  Spd
km/h
Gust
km/h
Spd
kts
Gust
kts
18/11:30pm - - - - - S 9 11 5 6 - - -
18/11:00pm - - - - - SSW 11 17 6 9 - - -
18/10:30pm - - - - - SSW 13 15 7 8 - - -
18/10:00pm - - - - - SSW 17 22 9 12 - - -
18/09:30pm - - - - - SW 17 26 9 14 - - -
18/09:00pm - - - - - SW 15 19 8 10 - - -
18/08:30pm - - - - - SSW 13 19 7 10 - - -
18/08:00pm - - - - - SW 17 24 9 13 - - -
18/07:30pm - - - - - SSW 17 24 9 13 - - -
18/07:00pm - - - - - SW 28 35 15 19 - - -
18/06:30pm - - - - - SW 20 28 11 15 - - -
18/06:00pm - - - - - SW 26 35 14 19 - - -
18/05:30pm - - - - - SW 26 35 14 19 - - -
18/05:00pm - - - - - SW 24 30 13 16 - - -
18/04:30pm - - - - - WSW 30 33 16 18 - - -
18/04:00pm - - - - - WSW 30 33 16 18 - - -
18/03:30pm - - - - - WSW 28 30 15 16 - - -
18/03:00pm - - - - - WSW 19 22 10 12 - - -
18/02:30pm - - - - - WSW 15 19 8 10 - - -
18/02:00pm - - - - - WSW 15 17 8 9 - - -
18/01:30pm - - - - - W 13 15 7 8 - - -
18/01:00pm - - - - - W 15 17 8 9 - - -
18/12:30pm - - - - - W 17 19 9 10 - - -
18/12:00pm - - - - - WNW 15 17 8 9 - - -
18/11:30am - - - - - WNW 17 19 9 10 - - -
18/11:00am - - - - - WNW 15 19 8 10 - - -
18/10:30am - - - - - WNW 13 15 7 8 - - -
18/10:00am - - - - - WNW 17 19 9 10 - - -
18/09:30am - - - - - W 19 22 10 12 - - -
18/09:00am - - - - - W 19 22 10 12 - - -
18/08:30am - - - - - WNW 20 26 11 14 - - -
18/08:00am - - - - - WNW 26 32 14 17 - - -
18/07:30am - - - - - WNW 20 26 11 14 - - -
18/07:00am - - - - - WNW 20 24 11 13 - - -
18/06:30am - - - - - NW 17 22 9 12 - - -
18/06:00am - - - - - WSW 6 9 3 5 - - -
18/05:30am - - - - - CALM 0 0 0 0 - - -
18/05:00am - - - - - W 7 9 4 5 - - -
18/04:30am - - - - - SE 6 7 3 4 - - -
18/04:00am - - - - - E 7 9 4 5 - - -

Other formats

Comma delimited format used in spreadsheet applications
http://www.bom.gov.au/fwo/IDV60801/IDV60801.94871.axf

JavaScript Object Notation format (JSON) in row-major order
http://www.bom.gov.au/fwo/IDV60801/IDV60801.94871.json

Data quality

Most of these data are generated automatically and are frequently updated. Quality checks on data are not normally performed. It is possible for incorrect values to appear. Refer to information at About Latest Weather Observations and please check the disclaimer before using these data.